Time;durP1;ratioP1;P1;durP2;ratioP2;P2;SDS_P1;SDS_P2;PMS_P1;PMS_P2;Temp;Humidity;BMP_temperature;BMP_pressure;BME280_temperature;BME280_humidity;BME280_pressure;Samples;Min_cycle;Max_cycle;Signal;HPM_P1;HPM_P2
2023/10/26 00:01:49;;;;;;;1.80;0.77;;;;;;;;;;5093862;28;20504;-77
2023/10/26 00:04:18;;;;;;;1.80;0.70;;;;;;;;;;5097629;28;20431;-77
2023/10/26 00:06:45;;;;;;;2.00;0.70;;;;;;;;;;5097199;28;20942;-77
2023/10/26 00:09:12;;;;;;;2.90;0.70;;;;;;;;;;5097409;28;20485;-77
2023/10/26 00:11:40;;;;;;;2.53;0.90;;;;;;;;;;5096479;28;20439;-77
2023/10/26 00:14:07;;;;;;;2.10;0.60;;;;;;;;;;5097834;28;20489;-77
2023/10/26 00:16:35;;;;;;;1.70;0.60;;;;;;;;;;5097073;28;20976;-78
2023/10/26 00:19:03;;;;;;;2.00;0.70;;;;;;;;;;5097917;28;20522;-78
2023/10/26 00:21:32;;;;;;;1.77;0.63;;;;;;;;;;5097526;28;20454;-78
2023/10/26 00:23:59;;;;;;;1.73;0.77;;;;;;;;;;5096673;28;20455;-78
2023/10/26 00:26:27;;;;;;;1.70;0.60;;;;;;;;;;5097050;28;20435;-78
2023/10/26 00:28:54;;;;;;;1.70;0.60;;;;;;;;;;5097237;28;20481;-77
2023/10/26 00:31:21;;;;;;;2.27;1.20;;;;;;;;;;5097171;28;20496;-78
2023/10/26 00:33:48;;;;;;;1.67;0.53;;;;;;;;;;5097066;28;20451;-77
2023/10/26 00:36:16;;;;;;;1.80;0.70;;;;;;;;;;5082944;28;20467;-77
2023/10/26 00:38:44;;;;;;;1.60;0.50;;;;;;;;;;5097000;28;20435;-77
2023/10/26 00:41:12;;;;;;;1.80;0.80;;;;;;;;;;5097164;28;20439;-78
2023/10/26 00:43:39;;;;;;;1.90;0.70;;;;;;;;;;5097183;28;20420;-77
2023/10/26 00:46:10;;;;;;;2.23;0.80;;;;;;;;;;5096798;28;20436;-77
2023/10/26 00:48:37;;;;;;;1.70;0.60;;;;;;;;;;5096832;28;20428;-77
2023/10/26 00:51:05;;;;;;;1.70;0.60;;;;;;;;;;5096772;28;20445;-77
2023/10/26 00:53:34;;;;;;;1.80;0.60;;;;;;;;;;5097029;28;20489;-77
2023/10/26 00:56:02;;;;;;;3.15;0.60;;;;;;;;;;5096575;28;20504;-77
2023/10/26 00:58:31;;;;;;;2.00;0.60;;;;;;;;;;5096634;28;20193;-77
2023/10/26 01:00:58;;;;;;;2.53;0.63;;;;;;;;;;5096842;28;20622;-77
2023/10/26 01:03:25;;;;;;;2.53;0.70;;;;;;;;;;5096864;28;20239;-78
2023/10/26 01:05:53;;;;;;;1.70;0.60;;;;;;;;;;5096185;28;20435;-77
2023/10/26 01:08:20;;;;;;;1.77;0.60;;;;;;;;;;5096267;28;20197;-77
2023/10/26 01:10:48;;;;;;;1.90;0.70;;;;;;;;;;5096924;28;20196;-77
2023/10/26 01:13:16;;;;;;;2.33;1.50;;;;;;;;;;5096302;28;20659;-77
2023/10/26 01:15:44;;;;;;;1.85;0.75;;;;;;;;;;5096375;28;20239;-76
2023/10/26 01:18:11;;;;;;;2.10;0.80;;;;;;;;;;5096057;28;20209;-77
2023/10/26 01:20:42;;;;;;;1.80;0.80;;;;;;;;;;5096532;28;20229;-77
2023/10/26 01:23:10;;;;;;;3.55;0.90;;;;;;;;;;5096431;28;20181;-77
2023/10/26 01:25:38;;;;;;;2.00;0.80;;;;;;;;;;5096183;28;20246;-77
2023/10/26 01:28:06;;;;;;;2.00;0.70;;;;;;;;;;5095272;28;20217;-77
2023/10/26 01:30:34;;;;;;;2.92;0.75;;;;;;;;;;5096862;28;20189;-77
2023/10/26 01:33:01;;;;;;;1.90;0.60;;;;;;;;;;5096236;28;20193;-77
2023/10/26 01:35:28;;;;;;;3.05;2.58;;;;;;;;;;5096201;28;20197;-77
2023/10/26 01:37:56;;;;;;;1.70;0.60;;;;;;;;;;5095367;28;20240;-77
2023/10/26 01:40:24;;;;;;;2.17;0.65;;;;;;;;;;5095841;28;20203;-77
2023/10/26 01:42:52;;;;;;;1.83;0.77;;;;;;;;;;5096050;28;20189;-77
2023/10/26 01:45:19;;;;;;;2.40;0.82;;;;;;;;;;5095537;28;20201;-77
2023/10/26 01:47:46;;;;;;;1.80;0.70;;;;;;;;;;5095748;28;20190;-77
2023/10/26 01:50:13;;;;;;;2.00;0.75;;;;;;;;;;5095968;28;20602;-77
2023/10/26 01:52:41;;;;;;;1.90;0.85;;;;;;;;;;5096054;28;20197;-77
2023/10/26 01:55:08;;;;;;;2.20;1.20;;;;;;;;;;5095900;28;20787;-77
2023/10/26 01:57:37;;;;;;;2.20;1.00;;;;;;;;;;5095243;28;20213;-77
2023/10/26 02:00:05;;;;;;;1.80;0.73;;;;;;;;;;5095908;28;20599;-77
2023/10/26 02:02:32;;;;;;;2.00;0.90;;;;;;;;;;5095383;28;20189;-77
2023/10/26 02:04:59;;;;;;;2.00;0.98;;;;;;;;;;5095366;28;20194;-77
2023/10/26 02:07:26;;;;;;;2.00;0.90;;;;;;;;;;5094832;28;20673;-77
2023/10/26 02:09:53;;;;;;;2.38;1.00;;;;;;;;;;5095230;28;20235;-77
2023/10/26 02:12:21;;;;;;;5.75;0.98;;;;;;;;;;5095168;28;20193;-77
2023/10/26 02:14:49;;;;;;;2.10;0.90;;;;;;;;;;5095481;28;20194;-77
2023/10/26 02:17:17;;;;;;;2.20;1.00;;;;;;;;;;5094751;28;20295;-77
2023/10/26 02:19:44;;;;;;;3.85;1.10;;;;;;;;;;5095078;28;20224;-77
2023/10/26 02:22:13;;;;;;;2.45;1.00;;;;;;;;;;5093970;28;20186;-77
2023/10/26 02:24:41;;;;;;;2.45;0.80;;;;;;;;;;5094935;28;20197;-77
2023/10/26 02:27:08;;;;;;;2.20;0.90;;;;;;;;;;5095031;28;20247;-77
2023/10/26 02:29:36;;;;;;;1.70;0.60;;;;;;;;;;5095257;28;20190;-77
2023/10/26 02:32:04;;;;;;;2.70;1.50;;;;;;;;;;5094803;28;20186;-77
2023/10/26 02:34:32;;;;;;;2.90;0.73;;;;;;;;;;5095117;28;20193;-77
2023/10/26 02:37:00;;;;;;;1.70;0.60;;;;;;;;;;5094977;28;20221;-77
2023/10/26 02:39:27;;;;;;;1.80;0.70;;;;;;;;;;5095052;28;20194;-77
2023/10/26 02:41:55;;;;;;;2.92;1.30;;;;;;;;;;5094469;28;20671;-77
2023/10/26 02:44:22;;;;;;;4.18;1.00;;;;;;;;;;5095168;28;20189;-77
2023/10/26 02:46:49;;;;;;;2.80;0.95;;;;;;;;;;5094857;28;20201;-77
2023/10/26 02:49:18;;;;;;;4.20;0.90;;;;;;;;;;5094565;28;20197;-77
2023/10/26 02:51:45;;;;;;;2.20;1.30;;;;;;;;;;5093875;28;20207;-77
2023/10/26 02:54:12;;;;;;;2.10;1.00;;;;;;;;;;5094278;28;20215;-77
2023/10/26 02:56:39;;;;;;;1.80;0.70;;;;;;;;;;5094641;28;20190;-77
2023/10/26 02:59:07;;;;;;;2.30;0.85;;;;;;;;;;5094911;28;20254;-77
2023/10/26 03:01:34;;;;;;;1.80;0.70;;;;;;;;;;5094030;28;20231;-77
2023/10/26 03:04:01;;;;;;;2.00;0.90;;;;;;;;;;5094618;28;20189;-77
2023/10/26 03:06:30;;;;;;;3.90;1.08;;;;;;;;;;5094513;28;20243;-77
2023/10/26 03:08:57;;;;;;;2.30;1.30;;;;;;;;;;5094026;28;20254;-77
2023/10/26 03:11:25;;;;;;;2.90;1.42;;;;;;;;;;5093781;28;20726;-77
2023/10/26 03:13:52;;;;;;;2.85;1.33;;;;;;;;;;5094407;28;20194;-77
2023/10/26 03:16:20;;;;;;;2.28;0.85;;;;;;;;;;5094362;28;20190;-77
2023/10/26 03:18:48;;;;;;;1.83;0.70;;;;;;;;;;5094242;28;20213;-77
2023/10/26 03:21:16;;;;;;;6.15;5.55;;;;;;;;;;5094640;28;20218;-77
2023/10/26 03:23:52;;;;;;;8.10;7.40;;;;;;;;;;5093862;28;20204;-77
2023/10/26 03:26:19;;;;;;;2.70;1.98;;;;;;;;;;5093830;28;20272;-77
2023/10/26 03:28:47;;;;;;;2.10;1.10;;;;;;;;;;5094228;28;20197;-77
2023/10/26 03:31:14;;;;;;;4.47;2.50;;;;;;;;;;5093914;28;20705;-77
2023/10/26 03:33:41;;;;;;;9.40;4.85;;;;;;;;;;5093420;28;20647;-77
2023/10/26 03:36:14;;;;;;;5.95;3.65;;;;;;;;;;5093836;28;20197;-77
2023/10/26 03:38:41;;;;;;;2.92;1.70;;;;;;;;;;5093394;28;20312;-77
2023/10/26 03:41:10;;;;;;;3.00;1.55;;;;;;;;;;5094091;28;20193;-77
2023/10/26 03:43:37;;;;;;;3.95;2.10;;;;;;;;;;5093596;28;20217;-77
2023/10/26 03:46:05;;;;;;;3.63;1.50;;;;;;;;;;5093704;28;20189;-77
2023/10/26 03:48:34;;;;;;;2.97;1.48;;;;;;;;;;5093844;28;20201;-77
2023/10/26 03:51:01;;;;;;;2.70;1.23;;;;;;;;;;5093754;28;20196;-77
2023/10/26 03:53:28;;;;;;;4.20;1.52;;;;;;;;;;5093174;28;20238;-77
2023/10/26 03:55:56;;;;;;;2.90;1.50;;;;;;;;;;5093821;28;20243;-77
2023/10/26 03:58:25;;;;;;;2.63;1.40;;;;;;;;;;5093595;28;20267;-77
2023/10/26 04:00:52;;;;;;;2.63;1.35;;;;;;;;;;5093010;28;20196;-76
2023/10/26 04:03:20;;;;;;;2.78;1.40;;;;;;;;;;5093406;28;20648;-77
2023/10/26 04:05:47;;;;;;;2.42;0.90;;;;;;;;;;5093751;28;20189;-77
2023/10/26 04:08:14;;;;;;;3.25;1.50;;;;;;;;;;5093306;28;20193;-77
2023/10/26 04:10:43;;;;;;;3.70;1.00;;;;;;;;;;5093361;28;20185;-77
2023/10/26 04:13:10;;;;;;;2.67;1.55;;;;;;;;;;5093258;28;20186;-77
2023/10/26 04:15:39;;;;;;;2.10;0.90;;;;;;;;;;5093768;28;20190;-77
2023/10/26 04:18:09;;;;;;;5.50;1.30;;;;;;;;;;5093516;28;20213;-77
2023/10/26 04:20:39;;;;;;;1.92;0.60;;;;;;;;;;5093276;28;20221;-77
2023/10/26 04:23:06;;;;;;;2.00;0.90;;;;;;;;;;5093217;28;20201;-77
2023/10/26 04:25:33;;;;;;;2.13;1.10;;;;;;;;;;5093715;28;20193;-77
2023/10/26 04:28:00;;;;;;;2.00;0.75;;;;;;;;;;5093856;28;20197;-77
2023/10/26 04:30:28;;;;;;;2.30;1.00;;;;;;;;;;5093186;28;20185;-77
2023/10/26 04:32:56;;;;;;;3.08;1.05;;;;;;;;;;5092355;28;20177;-76
2023/10/26 04:35:23;;;;;;;4.57;1.10;;;;;;;;;;5093264;28;20243;-77
2023/10/26 04:37:53;;;;;;;2.00;1.00;;;;;;;;;;5093198;28;20213;-77
2023/10/26 04:40:20;;;;;;;1.90;0.70;;;;;;;;;;5093032;28;20663;-77
2023/10/26 04:42:47;;;;;;;1.90;0.80;;;;;;;;;;5092711;28;20178;-77
2023/10/26 04:45:15;;;;;;;2.10;0.90;;;;;;;;;;5093331;28;20231;-77
2023/10/26 04:47:42;;;;;;;2.00;0.85;;;;;;;;;;5093001;28;20220;-77
2023/10/26 04:50:11;;;;;;;1.80;0.70;;;;;;;;;;5096773;28;20194;-77
2023/10/26 04:52:38;;;;;;;2.10;0.80;;;;;;;;;;5096535;28;20225;-77
2023/10/26 04:55:06;;;;;;;2.13;0.70;;;;;;;;;;5097004;28;20258;-77
2023/10/26 04:57:33;;;;;;;1.90;0.70;;;;;;;;;;5096576;28;20213;-77
2023/10/26 05:00:00;;;;;;;1.75;0.60;;;;;;;;;;5097008;28;20194;-77
2023/10/26 05:02:28;;;;;;;1.98;0.85;;;;;;;;;;5096224;28;20225;-77
2023/10/26 05:04:55;;;;;;;2.30;0.90;;;;;;;;;;5096751;28;20189;-77
2023/10/26 05:07:23;;;;;;;1.95;0.88;;;;;;;;;;5095804;28;20254;-78
2023/10/26 05:09:51;;;;;;;3.05;1.33;;;;;;;;;;5096867;28;20197;-78
2023/10/26 05:12:18;;;;;;;4.25;1.05;;;;;;;;;;5096401;28;20248;-78
2023/10/26 05:14:45;;;;;;;1.90;0.80;;;;;;;;;;5096391;28;20213;-78
2023/10/26 05:17:14;;;;;;;1.88;0.88;;;;;;;;;;5096337;28;20228;-78
2023/10/26 05:19:42;;;;;;;5.05;1.05;;;;;;;;;;5096007;28;20909;-78
2023/10/26 05:22:09;;;;;;;2.22;0.95;;;;;;;;;;5096456;28;20239;-78
2023/10/26 05:24:38;;;;;;;3.88;0.90;;;;;;;;;;5095785;28;20648;-78
2023/10/26 05:27:06;;;;;;;2.30;0.90;;;;;;;;;;5095990;28;20584;-77
2023/10/26 05:29:33;;;;;;;2.40;1.10;;;;;;;;;;5092160;28;20258;-77
2023/10/26 05:32:00;;;;;;;1.90;0.80;;;;;;;;;;5094084;28;20190;-77
2023/10/26 05:34:28;;;;;;;1.80;0.70;;;;;;;;;;5094175;28;20189;-76
2023/10/26 05:36:56;;;;;;;2.20;0.98;;;;;;;;;;5093381;28;20239;-77
2023/10/26 05:39:23;;;;;;;2.20;1.02;;;;;;;;;;5094157;28;20232;-77
2023/10/26 05:41:52;;;;;;;2.30;1.00;;;;;;;;;;5094630;28;20194;-77
2023/10/26 05:44:19;;;;;;;2.28;0.80;;;;;;;;;;5090251;28;20281;-77
2023/10/26 05:46:47;;;;;;;2.80;1.20;;;;;;;;;;5092605;28;20235;-76
2023/10/26 05:49:14;;;;;;;2.50;1.30;;;;;;;;;;5094064;28;20192;-77
2023/10/26 05:51:41;;;;;;;3.28;1.50;;;;;;;;;;5093526;28;20666;-77
2023/10/26 05:54:13;;;;;;;3.67;1.10;;;;;;;;;;5089955;28;20549;-77
2023/10/26 05:56:40;;;;;;;4.07;1.92;;;;;;;;;;5094031;28;20251;-77
2023/10/26 05:59:09;;;;;;;3.15;1.70;;;;;;;;;;5093846;28;20213;-77
2023/10/26 06:01:36;;;;;;;3.20;1.33;;;;;;;;;;5093424;28;20189;-77
2023/10/26 06:04:03;;;;;;;3.83;1.88;;;;;;;;;;5094201;28;20196;-77
2023/10/26 06:06:31;;;;;;;3.00;1.73;;;;;;;;;;5094195;28;20187;-77
2023/10/26 06:08:59;;;;;;;3.53;2.13;;;;;;;;;;5093284;28;20225;-76
2023/10/26 06:11:27;;;;;;;5.22;1.70;;;;;;;;;;5089520;28;20685;-77
2023/10/26 06:13:54;;;;;;;4.20;2.80;;;;;;;;;;5090146;28;20193;-77
2023/10/26 06:16:23;;;;;;;4.57;3.07;;;;;;;;;;5093582;28;20497;-77
2023/10/26 06:18:50;;;;;;;5.35;4.22;;;;;;;;;;5092995;28;20479;-77
2023/10/26 06:21:18;;;;;;;6.45;3.60;;;;;;;;;;5093171;28;20562;-77
2023/10/26 06:23:45;;;;;;;5.50;3.92;;;;;;;;;;5093486;28;20193;-77
2023/10/26 06:26:13;;;;;;;5.37;4.03;;;;;;;;;;5092840;28;20209;-77
2023/10/26 06:28:40;;;;;;;4.97;3.30;;;;;;;;;;5092381;28;20432;-77
2023/10/26 06:31:09;;;;;;;4.47;2.40;;;;;;;;;;5092429;28;20444;-77
2023/10/26 06:33:38;;;;;;;4.72;2.80;;;;;;;;;;5092525;28;20181;-77
2023/10/26 06:36:06;;;;;;;4.57;2.40;;;;;;;;;;5093817;28;20201;-77
2023/10/26 06:38:33;;;;;;;5.73;2.40;;;;;;;;;;5094026;28;20498;-77
2023/10/26 06:41:00;;;;;;;3.70;1.90;;;;;;;;;;5092848;28;20478;-77
2023/10/26 06:43:28;;;;;;;3.53;2.10;;;;;;;;;;5093998;28;20488;-77
2023/10/26 06:45:55;;;;;;;3.95;2.42;;;;;;;;;;5094501;28;20217;-77
2023/10/26 06:48:22;;;;;;;4.43;2.27;;;;;;;;;;5094374;28;20189;-77
2023/10/26 06:50:57;;;;;;;5.97;2.73;;;;;;;;;;5094692;28;20431;-77
2023/10/26 06:53:27;;;;;;;4.75;3.28;;;;;;;;;;5094309;28;20452;-77
2023/10/26 06:55:54;;;;;;;5.07;2.70;;;;;;;;;;5094104;28;20595;-77
2023/10/26 06:58:22;;;;;;;5.30;2.77;;;;;;;;;;5094053;28;20977;-77
2023/10/26 07:00:49;;;;;;;7.07;2.70;;;;;;;;;;5093861;28;20933;-77
2023/10/26 07:03:16;;;;;;;6.73;3.30;;;;;;;;;;5093805;28;20428;-77
2023/10/26 07:05:43;;;;;;;5.10;2.67;;;;;;;;;;5094294;28;20492;-77
2023/10/26 07:08:15;;;;;;;6.60;3.30;;;;;;;;;;5093921;28;20496;-77
2023/10/26 07:10:42;;;;;;;4.37;3.17;;;;;;;;;;5093924;28;20420;-77
2023/10/26 07:13:10;;;;;;;7.00;4.30;;;;;;;;;;5093630;28;20431;-77
2023/10/26 07:15:37;;;;;;;4.77;3.47;;;;;;;;;;5093773;28;20435;-77
2023/10/26 07:18:05;;;;;;;5.10;3.50;;;;;;;;;;5093810;28;20496;-77
2023/10/26 07:20:32;;;;;;;4.53;2.83;;;;;;;;;;5093489;28;20468;-77
2023/10/26 07:22:59;;;;;;;5.70;3.57;;;;;;;;;;5093858;28;20427;-77
2023/10/26 07:25:28;;;;;;;5.07;3.73;;;;;;;;;;5093453;28;20453;-77
2023/10/26 07:27:55;;;;;;;5.17;3.43;;;;;;;;;;5093713;28;20436;-77
2023/10/26 07:30:23;;;;;;;7.27;3.27;;;;;;;;;;5093422;28;20471;-77
2023/10/26 07:32:53;;;;;;;7.07;3.37;;;;;;;;;;5093304;28;20471;-77
2023/10/26 07:35:21;;;;;;;4.50;2.27;;;;;;;;;;5093472;28;20428;-77
2023/10/26 07:37:48;;;;;;;3.20;1.70;;;;;;;;;;5093578;28;20443;-77
2023/10/26 07:40:16;;;;;;;3.67;2.90;;;;;;;;;;5093526;28;20475;-77
2023/10/26 07:42:44;;;;;;;4.20;2.37;;;;;;;;;;5093260;28;20428;-77
2023/10/26 07:45:12;;;;;;;3.17;1.97;;;;;;;;;;5093610;28;20481;-77
2023/10/26 07:47:39;;;;;;;2.50;1.57;;;;;;;;;;5093276;28;20439;-77
2023/10/26 07:50:07;;;;;;;3.07;1.53;;;;;;;;;;5093175;28;20443;-77
2023/10/26 07:52:34;;;;;;;2.87;1.57;;;;;;;;;;5093460;28;20837;-77
2023/10/26 07:55:02;;;;;;;3.30;1.40;;;;;;;;;;5093381;28;20484;-77
2023/10/26 07:57:29;;;;;;;3.90;2.20;;;;;;;;;;5093207;28;20913;-77
2023/10/26 07:59:58;;;;;;;3.53;1.90;;;;;;;;;;5093388;28;20526;-77
2023/10/26 08:02:25;;;;;;;3.83;2.17;;;;;;;;;;5093064;28;20463;-77
2023/10/26 08:04:52;;;;;;;4.23;3.60;;;;;;;;;;5093082;28;20974;-77
2023/10/26 08:07:20;;;;;;;2.80;1.90;;;;;;;;;;5092979;28;20467;-77
2023/10/26 08:09:49;;;;;;;2.90;1.87;;;;;;;;;;5093443;28;20436;-77
2023/10/26 08:12:17;;;;;;;3.13;1.70;;;;;;;;;;5093310;28;20474;-77
2023/10/26 08:14:46;;;;;;;3.73;2.40;;;;;;;;;;5092991;28;20439;-77
2023/10/26 08:17:15;;;;;;;4.87;1.60;;;;;;;;;;5093299;28;20427;-77
2023/10/26 08:19:42;;;;;;;3.17;1.30;;;;;;;;;;5092851;28;20479;-77
2023/10/26 08:22:10;;;;;;;2.50;1.50;;;;;;;;;;5092832;28;20485;-77
2023/10/26 08:24:37;;;;;;;2.50;1.30;;;;;;;;;;5095906;28;20434;-77
2023/10/26 08:27:05;;;;;;;2.87;1.70;;;;;;;;;;5097279;28;20485;-77
2023/10/26 08:29:37;;;;;;;4.00;1.87;;;;;;;;;;5096899;28;20435;-77
2023/10/26 08:32:05;;;;;;;4.30;2.20;;;;;;;;;;5096907;28;20507;-77
2023/10/26 08:34:34;;;;;;;3.73;2.40;;;;;;;;;;5097420;28;20415;-77
2023/10/26 08:37:01;;;;;;;2.73;1.67;;;;;;;;;;5097066;28;20847;-77
2023/10/26 08:39:28;;;;;;;4.80;1.93;;;;;;;;;;5096535;28;20554;-77
2023/10/26 08:41:59;;;;;;;3.00;1.40;;;;;;;;;;5096922;28;20463;-77
2023/10/26 08:44:27;;;;;;;3.80;1.60;;;;;;;;;;5096600;28;20457;-77
2023/10/26 08:46:55;;;;;;;4.20;2.07;;;;;;;;;;5096884;28;20435;-77
2023/10/26 08:49:23;;;;;;;4.20;1.70;;;;;;;;;;5096450;28;20432;-77
2023/10/26 08:51:52;;;;;;;3.10;1.77;;;;;;;;;;5096365;28;20423;-77
2023/10/26 08:54:19;;;;;;;2.87;2.00;;;;;;;;;;5096276;28;20471;-77
2023/10/26 08:56:48;;;;;;;6.40;2.60;;;;;;;;;;5096636;28;20500;-77
2023/10/26 08:59:15;;;;;;;7.30;2.20;;;;;;;;;;5096244;28;20983;-77
2023/10/26 09:01:46;;;;;;;4.80;2.53;;;;;;;;;;5096719;28;20512;-77
2023/10/26 09:04:14;;;;;;;3.37;1.80;;;;;;;;;;5096441;28;20431;-77
2023/10/26 09:06:44;;;;;;;3.00;1.70;;;;;;;;;;5096108;28;20439;-77
2023/10/26 09:09:12;;;;;;;3.10;1.37;;;;;;;;;;5096133;28;20910;-77
2023/10/26 09:11:40;;;;;;;2.83;1.97;;;;;;;;;;5096119;28;20468;-77
2023/10/26 09:14:14;;;;;;;4.60;3.73;;;;;;;;;;5096030;28;20824;-77
2023/10/26 09:16:43;;;;;;;14.97;11.00;;;;;;;;;;5096198;28;20513;-77
2023/10/26 09:19:12;;;;;;;14.00;10.10;;;;;;;;;;5095613;28;20467;-76
2023/10/26 09:21:52;;;;;;;11.00;7.97;;;;;;;;;;5096069;28;20433;-77
2023/10/26 09:24:24;;;;;;;5.23;3.60;;;;;;;;;;5096035;28;20435;-77
2023/10/26 09:26:51;;;;;;;3.57;2.40;;;;;;;;;;5095779;28;21036;-77
2023/10/26 09:29:20;;;;;;;5.50;3.07;;;;;;;;;;5096054;28;20504;-77
2023/10/26 09:31:54;;;;;;;4.73;3.27;;;;;;;;;;5095917;28;20459;-77
2023/10/26 09:34:24;;;;;;;4.43;3.13;;;;;;;;;;5095069;28;20479;-77
2023/10/26 09:37:02;;;;;;;3.93;2.50;;;;;;;;;;5095534;28;20462;-77
2023/10/26 09:39:34;;;;;;;4.50;2.70;;;;;;;;;;5095863;28;20819;-77
2023/10/26 09:42:02;;;;;;;3.53;2.53;;;;;;;;;;5095550;28;20426;-77
2023/10/26 09:44:30;;;;;;;4.00;3.00;;;;;;;;;;5095368;28;20440;-77
2023/10/26 09:46:57;;;;;;;4.33;3.50;;;;;;;;;;5095670;28;20831;-77
2023/10/26 09:49:25;;;;;;;5.00;3.10;;;;;;;;;;5095669;28;20451;-77
2023/10/26 09:51:53;;;;;;;5.10;3.13;;;;;;;;;;5095275;28;20561;-77
2023/10/26 09:54:22;;;;;;;5.10;3.20;;;;;;;;;;5095537;28;20435;-77
2023/10/26 09:56:55;;;;;;;4.37;2.53;;;;;;;;;;5095325;28;20442;-77
2023/10/26 09:59:23;;;;;;;2.90;2.00;;;;;;;;;;5095359;28;20554;-77
2023/10/26 10:01:50;;;;;;;3.27;1.87;;;;;;;;;;5095202;28;20916;-77
2023/10/26 10:04:19;;;;;;;4.43;2.10;;;;;;;;;;5095358;28;20485;-77
2023/10/26 10:06:48;;;;;;;2.87;1.60;;;;;;;;;;5095563;28;20435;-77
2023/10/26 10:09:18;;;;;;;2.90;1.70;;;;;;;;;;5095134;28;20443;-77
2023/10/26 10:11:46;;;;;;;3.43;1.70;;;;;;;;;;5095219;28;20423;-77
2023/10/26 10:14:28;;;;;;;4.37;1.90;;;;;;;;;;5094887;28;20493;-77
2023/10/26 10:16:57;;;;;;;2.93;2.00;;;;;;;;;;5094875;28;20496;-77
2023/10/26 10:19:26;;;;;;;3.90;3.10;;;;;;;;;;5094347;28;20981;-77
2023/10/26 10:21:53;;;;;;;4.63;2.13;;;;;;;;;;5094679;28;20481;-77
2023/10/26 10:24:39;;;;;;;4.03;2.90;;;;;;;;;;5094596;28;20465;-77
2023/10/26 10:27:10;;;;;;;3.70;2.20;;;;;;;;;;5095271;28;20500;-77
2023/10/26 10:29:37;;;;;;;4.00;2.30;;;;;;;;;;5094507;28;20492;-77
2023/10/26 10:32:06;;;;;;;4.97;2.83;;;;;;;;;;5094552;28;20436;-77
2023/10/26 10:34:35;;;;;;;4.27;1.93;;;;;;;;;;5094704;28;20489;-77
2023/10/26 10:37:09;;;;;;;4.07;2.33;;;;;;;;;;5094725;28;20435;-77
2023/10/26 10:39:36;;;;;;;3.00;1.90;;;;;;;;;;5094494;28;20556;-77
2023/10/26 10:42:04;;;;;;;4.40;1.60;;;;;;;;;;5094801;28;20527;-77
2023/10/26 10:44:36;;;;;;;5.47;2.00;;;;;;;;;;5094523;28;20948;-77
2023/10/26 10:47:03;;;;;;;3.40;1.43;;;;;;;;;;5094418;28;20470;-77
2023/10/26 10:49:32;;;;;;;4.50;1.90;;;;;;;;;;5094463;28;20432;-77
2023/10/26 10:52:00;;;;;;;3.47;1.30;;;;;;;;;;5094538;28;20510;-78
2023/10/26 10:54:27;;;;;;;2.93;1.50;;;;;;;;;;5094668;28;20458;-78
2023/10/26 10:56:54;;;;;;;3.50;1.40;;;;;;;;;;5093987;28;20428;-78
2023/10/26 10:59:22;;;;;;;2.30;0.80;;;;;;;;;;5094113;28;20461;-78
2023/10/26 11:01:52;;;;;;;3.20;0.87;;;;;;;;;;5090769;28;20427;-78
2023/10/26 11:04:45;;;;;;;1.90;0.60;;;;;;;;;;5093314;28;20446;-78
2023/10/26 11:07:19;;;;;;;2.87;1.20;;;;;;;;;;5108830;28;20442;-78
2023/10/26 11:09:48;;;;;;;2.50;1.00;;;;;;;;;;5094137;28;20437;-78
2023/10/26 11:12:15;;;;;;;2.07;0.80;;;;;;;;;;5093185;28;20462;-78
2023/10/26 11:14:50;;;;;;;3.53;1.03;;;;;;;;;;5093533;28;20500;-78
2023/10/26 11:17:17;;;;;;;2.10;0.90;;;;;;;;;;5113892;28;20480;-78
2023/10/26 11:19:46;;;;;;;3.00;1.10;;;;;;;;;;5113640;28;20535;-78
2023/10/26 11:22:15;;;;;;;2.97;1.10;;;;;;;;;;5108859;28;20552;-78
2023/10/26 11:24:42;;;;;;;2.80;1.30;;;;;;;;;;5092838;28;20432;-78
2023/10/26 11:27:12;;;;;;;4.47;1.60;;;;;;;;;;5092911;28;20427;-78
2023/10/26 11:29:45;;;;;;;2.90;1.40;;;;;;;;;;5093536;28;20439;-78
2023/10/26 11:32:19;;;;;;;5.10;1.63;;;;;;;;;;5107727;28;20435;-78
2023/10/26 11:35:07;;;;;;;2.93;0.87;;;;;;;;;;5111136;28;20434;-78
2023/10/26 11:37:35;;;;;;;2.23;1.07;;;;;;;;;;5090790;28;20436;-78
2023/10/26 11:40:03;;;;;;;2.70;1.00;;;;;;;;;;5092711;28;20475;-79
2023/10/26 11:42:49;;;;;;;2.40;0.83;;;;;;;;;;5092693;28;20769;-79
2023/10/26 11:45:17;;;;;;;1.80;0.60;;;;;;;;;;5093016;28;20411;-78
2023/10/26 11:47:45;;;;;;;2.30;0.90;;;;;;;;;;5112765;28;20431;-78
2023/10/26 11:50:21;;;;;;;4.87;3.03;;;;;;;;;;5112692;28;20468;-78
2023/10/26 11:52:49;;;;;;;2.73;1.37;;;;;;;;;;5100816;28;20436;-79
2023/10/26 11:55:19;;;;;;;4.63;0.93;;;;;;;;;;5090402;28;20576;-78
2023/10/26 11:57:46;;;;;;;2.60;1.20;;;;;;;;;;5090360;28;20938;-78
2023/10/26 12:00:15;;;;;;;2.60;1.00;;;;;;;;;;5105255;28;20483;-78
2023/10/26 12:02:42;;;;;;;2.10;0.90;;;;;;;;;;5093249;28;20431;-78
2023/10/26 12:05:15;;;;;;;2.50;1.03;;;;;;;;;;5092472;28;20465;-78
2023/10/26 12:07:44;;;;;;;2.30;1.07;;;;;;;;;;5092672;28;20423;-78
2023/10/26 12:10:11;;;;;;;2.80;1.40;;;;;;;;;;5092603;28;20438;-78
2023/10/26 12:12:38;;;;;;;2.60;1.20;;;;;;;;;;5092807;28;20428;-77
2023/10/26 12:15:06;;;;;;;5.37;1.07;;;;;;;;;;5092626;28;20457;-78
2023/10/26 12:17:33;;;;;;;2.27;0.93;;;;;;;;;;5092707;28;20500;-77
2023/10/26 12:20:01;;;;;;;2.50;1.30;;;;;;;;;;5092093;28;20524;-77
2023/10/26 12:22:28;;;;;;;2.40;0.90;;;;;;;;;;5092421;28;20837;-77
2023/10/26 12:24:57;;;;;;;2.30;1.00;;;;;;;;;;5092714;28;20910;-77
2023/10/26 12:27:24;;;;;;;2.50;1.03;;;;;;;;;;5093583;28;20783;-77
2023/10/26 12:29:51;;;;;;;2.73;1.07;;;;;;;;;;5092667;28;20472;-78
2023/10/26 12:32:19;;;;;;;2.57;0.90;;;;;;;;;;5093081;28;20477;-77
2023/10/26 12:34:47;;;;;;;2.43;1.10;;;;;;;;;;5093134;28;20784;-77
2023/10/26 12:37:14;;;;;;;3.23;2.30;;;;;;;;;;5092884;28;20467;-77
2023/10/26 12:39:41;;;;;;;2.33;1.07;;;;;;;;;;5092531;28;20467;-77
2023/10/26 12:42:10;;;;;;;6.07;1.30;;;;;;;;;;5092591;28;20428;-77
2023/10/26 12:44:37;;;;;;;3.03;1.20;;;;;;;;;;5092559;28;20470;-77
2023/10/26 12:47:04;;;;;;;3.70;1.67;;;;;;;;;;5092844;28;20438;-77
2023/10/26 12:49:32;;;;;;;2.90;2.07;;;;;;;;;;5093125;28;20826;-77
2023/10/26 12:51:59;;;;;;;2.80;1.10;;;;;;;;;;5092915;28;20453;-77
2023/10/26 12:54:26;;;;;;;2.87;1.57;;;;;;;;;;5092619;28;20463;-77
2023/10/26 12:56:53;;;;;;;2.50;0.97;;;;;;;;;;5092500;28;20596;-77
2023/10/26 12:59:22;;;;;;;2.67;1.10;;;;;;;;;;5092817;28;20463;-77
2023/10/26 13:01:49;;;;;;;3.20;1.20;;;;;;;;;;5092410;28;20987;-77
2023/10/26 13:04:16;;;;;;;3.73;1.77;;;;;;;;;;5092814;28;20428;-77
2023/10/26 13:06:43;;;;;;;4.40;1.00;;;;;;;;;;5092661;28;20439;-77
2023/10/26 13:09:11;;;;;;;3.97;1.03;;;;;;;;;;5093359;28;20523;-77
2023/10/26 13:11:38;;;;;;;4.50;1.00;;;;;;;;;;5096163;28;20427;-77
2023/10/26 13:14:07;;;;;;;3.40;0.90;;;;;;;;;;5096598;28;20790;-78
2023/10/26 13:16:35;;;;;;;3.00;0.90;;;;;;;;;;5096193;28;20480;-77
2023/10/26 13:19:02;;;;;;;3.83;1.53;;;;;;;;;;5095636;28;20428;-77
2023/10/26 13:21:30;;;;;;;3.00;0.90;;;;;;;;;;5096160;28;20515;-78
2023/10/26 13:23:57;;;;;;;2.93;1.00;;;;;;;;;;5095775;28;20463;-78
2023/10/26 13:26:24;;;;;;;3.07;1.10;;;;;;;;;;5095808;28;20859;-78
2023/10/26 13:28:51;;;;;;;3.23;1.10;;;;;;;;;;5095607;28;20449;-78
2023/10/26 13:31:19;;;;;;;5.13;1.43;;;;;;;;;;5096200;28;20842;-78
2023/10/26 13:33:48;;;;;;;4.37;1.30;;;;;;;;;;5095901;28;20424;-77
2023/10/26 13:36:15;;;;;;;8.20;1.20;;;;;;;;;;5095560;28;20428;-78
2023/10/26 13:38:42;;;;;;;3.60;1.40;;;;;;;;;;5095642;28;20841;-78
2023/10/26 13:41:09;;;;;;;4.10;0.90;;;;;;;;;;5095835;28;20495;-78
2023/10/26 13:43:36;;;;;;;6.40;1.23;;;;;;;;;;5095343;28;20427;-77
2023/10/26 13:46:06;;;;;;;2.23;0.80;;;;;;;;;;5095416;28;20432;-78
2023/10/26 13:48:34;;;;;;;3.07;1.13;;;;;;;;;;5095440;28;20412;-78
2023/10/26 13:51:02;;;;;;;3.57;1.20;;;;;;;;;;5095308;28;20975;-78
2023/10/26 13:53:30;;;;;;;3.43;0.87;;;;;;;;;;5095168;28;20432;-78
2023/10/26 13:56:01;;;;;;;3.77;1.07;;;;;;;;;;5095550;28;20815;-78
2023/10/26 13:58:28;;;;;;;2.73;1.20;;;;;;;;;;5095427;28;20428;-77
2023/10/26 14:00:55;;;;;;;3.90;1.10;;;;;;;;;;5095354;28;20503;-77
2023/10/26 14:03:22;;;;;;;2.87;1.10;;;;;;;;;;5095402;28;20488;-78
2023/10/26 14:05:53;;;;;;;3.17;1.20;;;;;;;;;;5095415;28;20444;-77
2023/10/26 14:08:22;;;;;;;2.57;0.83;;;;;;;;;;5094911;28;20481;-77
2023/10/26 14:10:49;;;;;;;5.43;1.30;;;;;;;;;;5095206;28;20851;-77
2023/10/26 14:13:16;;;;;;;4.30;1.10;;;;;;;;;;5094917;28;20468;-78
2023/10/26 14:15:43;;;;;;;5.10;1.20;;;;;;;;;;5094712;28;21009;-77
2023/10/26 14:18:11;;;;;;;2.73;0.80;;;;;;;;;;5094975;28;20469;-78
2023/10/26 14:20:38;;;;;;;2.63;0.70;;;;;;;;;;5094258;28;20541;-78
2023/10/26 14:23:05;;;;;;;3.53;1.20;;;;;;;;;;5094493;28;20439;-77
2023/10/26 14:25:34;;;;;;;3.23;1.10;;;;;;;;;;5095261;28;21101;-77
2023/10/26 14:28:03;;;;;;;2.53;0.87;;;;;;;;;;5095164;28;20428;-78
2023/10/26 14:30:31;;;;;;;4.03;1.53;;;;;;;;;;5094734;28;20432;-77
2023/10/26 14:32:58;;;;;;;12.83;7.57;;;;;;;;;;5094572;28;20428;-77
2023/10/26 14:35:28;;;;;;;3.40;1.80;;;;;;;;;;5094786;28;20432;-77
2023/10/26 14:37:59;;;;;;;3.97;1.43;;;;;;;;;;5095113;28;20447;-77
2023/10/26 14:40:26;;;;;;;3.20;1.20;;;;;;;;;;5095036;28;20557;-77
2023/10/26 14:42:55;;;;;;;3.53;1.20;;;;;;;;;;5094410;28;20489;-77
2023/10/26 14:45:24;;;;;;;6.40;1.50;;;;;;;;;;5094335;28;20427;-77
2023/10/26 14:47:51;;;;;;;3.70;1.50;;;;;;;;;;5094430;28;20442;-77
2023/10/26 14:50:19;;;;;;;6.00;1.40;;;;;;;;;;5094399;28;20423;-77